createdAt,value
2022-07-29T00:02:26.461Z,65.40
2022-07-29T00:04:53.487Z,67.60
2022-07-29T00:07:20.077Z,66.62
2022-07-29T00:09:51.965Z,66.42
2022-07-29T00:12:25.525Z,66.20
2022-07-29T00:14:54.990Z,64.79
2022-07-29T00:17:21.639Z,65.77
2022-07-29T00:19:48.083Z,64.96
2022-07-29T00:22:14.680Z,65.32
2022-07-29T00:24:41.108Z,65.60
2022-07-29T00:27:07.578Z,67.28
2022-07-29T00:29:35.103Z,66.81
2022-07-29T00:32:02.916Z,66.07
2022-07-29T00:34:47.786Z,66.14
2022-07-29T00:37:14.227Z,66.35
2022-07-29T00:39:40.720Z,67.66
2022-07-29T00:42:07.323Z,67.98
2022-07-29T00:44:38.259Z,69.28
2022-07-29T00:47:04.855Z,68.33
2022-07-29T00:49:31.498Z,68.38
2022-07-29T00:51:58.508Z,69.97
2022-07-29T00:54:25.077Z,71.99
2022-07-29T00:56:51.575Z,74.45
2022-07-29T00:59:18.092Z,78.16
2022-07-29T01:01:44.535Z,83.11
2022-07-29T01:04:11.010Z,89.72
2022-07-29T01:06:37.785Z,88.07
2022-07-29T01:09:04.610Z,93.50
2022-07-29T01:11:31.073Z,97.11
2022-07-29T01:13:57.843Z,96.44
2022-07-29T01:16:33.672Z,90.57
2022-07-29T01:19:14.091Z,91.79
2022-07-29T01:21:58.452Z,91.76
2022-07-29T01:24:49.458Z,90.73
2022-07-29T01:27:31.018Z,89.36
2022-07-29T01:30:00.769Z,91.99
2022-07-29T01:32:30.468Z,89.86
2022-07-29T01:35:03.317Z,96.88
2022-07-29T01:37:41.398Z,100.00
2022-07-29T01:40:20.010Z,100.00
2022-07-29T01:42:51.173Z,100.00
2022-07-29T01:45:35.717Z,100.00
2022-07-29T01:48:19.062Z,100.00
2022-07-29T01:50:50.385Z,100.00
2022-07-29T01:53:36.422Z,100.00
2022-07-29T01:56:07.636Z,100.00
2022-07-29T01:58:37.654Z,100.00
2022-07-29T02:01:05.701Z,100.00
2022-07-29T02:03:33.429Z,100.00
2022-07-29T02:06:02.609Z,100.00
2022-07-29T02:08:31.562Z,100.00
2022-07-29T02:10:59.613Z,100.00
2022-07-29T02:13:28.542Z,100.00
2022-07-29T02:15:58.198Z,100.00
2022-07-29T02:18:28.901Z,100.00
2022-07-29T02:20:57.806Z,100.00
2022-07-29T02:23:26.035Z,100.00
2022-07-29T02:25:57.830Z,100.00
2022-07-29T02:28:28.681Z,100.00
2022-07-29T02:30:58.851Z,100.00
2022-07-29T02:33:26.534Z,100.00
2022-07-29T02:35:53.575Z,100.00
2022-07-29T02:38:40.544Z,100.00
2022-07-29T02:41:12.385Z,100.00
2022-07-29T02:43:41.519Z,100.00
2022-07-29T02:46:28.372Z,100.00
2022-07-29T02:49:29.709Z,100.00
2022-07-29T02:52:01.115Z,100.00
2022-07-29T02:54:38.024Z,100.00
2022-07-29T02:57:11.844Z,100.00
2022-07-29T02:59:42.968Z,100.00
2022-07-29T03:02:11.141Z,100.00
2022-07-29T03:04:41.270Z,100.00
2022-07-29T03:07:07.925Z,100.00
2022-07-29T03:09:35.417Z,100.00
2022-07-29T03:12:04.943Z,100.00
2022-07-29T03:14:32.588Z,100.00
2022-07-29T03:16:59.751Z,100.00
2022-07-29T03:19:27.698Z,100.00
2022-07-29T03:21:58.070Z,100.00
2022-07-29T03:24:29.250Z,100.00
2022-07-29T03:26:57.383Z,100.00
2022-07-29T03:29:24.039Z,100.00
2022-07-29T03:31:51.334Z,100.00
2022-07-29T03:34:18.221Z,100.00
2022-07-29T03:36:44.971Z,100.00
2022-07-29T03:39:21.457Z,100.00
2022-07-29T03:41:50.698Z,100.00
2022-07-29T03:44:18.905Z,100.00
2022-07-29T03:46:49.514Z,100.00
2022-07-29T03:49:17.469Z,100.00
2022-07-29T03:51:44.040Z,100.00
2022-07-29T03:54:10.774Z,100.00
2022-07-29T03:56:41.534Z,100.00
2022-07-29T03:59:08.944Z,100.00
2022-07-29T04:01:36.343Z,100.00
2022-07-29T04:04:03.573Z,100.00
2022-07-29T04:06:30.111Z,100.00
2022-07-29T04:08:56.536Z,100.00
2022-07-29T04:11:23.119Z,100.00
2022-07-29T04:13:49.531Z,100.00
2022-07-29T04:16:16.042Z,100.00
2022-07-29T04:18:42.529Z,100.00
2022-07-29T04:21:08.981Z,100.00
2022-07-29T04:23:35.431Z,100.00
2022-07-29T04:26:14.044Z,100.00
2022-07-29T04:28:41.386Z,100.00
2022-07-29T04:31:07.893Z,100.00
2022-07-29T04:33:34.343Z,100.00
2022-07-29T04:36:00.789Z,100.00
2022-07-29T04:38:27.592Z,100.00
2022-07-29T04:40:54.252Z,100.00
2022-07-29T04:43:22.694Z,100.00
2022-07-29T04:45:50.252Z,100.00
2022-07-29T04:48:17.377Z,100.00
2022-07-29T04:50:45.159Z,100.00
2022-07-29T04:53:11.546Z,100.00
2022-07-29T04:55:38.854Z,100.00
2022-07-29T04:58:05.687Z,100.00
2022-07-29T05:00:33.306Z,96.90
2022-07-29T05:03:00.261Z,93.84
2022-07-29T05:05:26.751Z,94.11
2022-07-29T05:07:53.292Z,92.03
2022-07-29T05:10:19.763Z,91.74
2022-07-29T05:12:46.232Z,90.69
2022-07-29T05:15:12.682Z,89.52
2022-07-29T05:17:39.085Z,90.29
2022-07-29T05:20:06.871Z,90.42
2022-07-29T05:22:33.509Z,89.89
2022-07-29T05:25:00.405Z,87.66
2022-07-29T05:27:29.020Z,87.65
2022-07-29T05:29:55.486Z,87.65
2022-07-29T05:32:21.902Z,86.66
2022-07-29T05:34:51.014Z,85.49
2022-07-29T05:37:21.192Z,85.97
2022-07-29T05:39:48.570Z,82.93
2022-07-29T05:42:17.258Z,84.40
2022-07-29T05:44:43.773Z,83.79
2022-07-29T05:47:10.198Z,81.89
2022-07-29T05:49:36.651Z,82.92
2022-07-29T05:52:03.404Z,83.10
2022-07-29T05:54:29.846Z,82.50
2022-07-29T05:56:56.672Z,84.03
2022-07-29T05:59:27.046Z,86.32
2022-07-29T06:01:57.951Z,85.60
2022-07-29T06:04:24.629Z,83.53
2022-07-29T06:06:51.081Z,82.99
2022-07-29T06:09:17.483Z,84.56
2022-07-29T06:11:44.527Z,82.91
2022-07-29T06:14:11.018Z,81.98
2022-07-29T06:16:37.516Z,81.81
2022-07-29T06:19:05.110Z,81.79
2022-07-29T06:21:31.539Z,80.63
2022-07-29T06:23:57.945Z,83.09
2022-07-29T06:26:30.611Z,80.36
2022-07-29T06:28:58.416Z,78.85
2022-07-29T06:31:24.951Z,79.14
2022-07-29T06:33:51.467Z,75.04
2022-07-29T06:36:21.269Z,77.58
2022-07-29T06:38:51.403Z,77.07
2022-07-29T06:41:18.944Z,75.82
2022-07-29T06:43:52.524Z,75.57
2022-07-29T06:46:23.022Z,77.69
2022-07-29T06:48:50.659Z,79.30
2022-07-29T06:51:22.400Z,75.79
2022-07-29T06:53:58.133Z,76.13
2022-07-29T06:56:27.196Z,77.90
2022-07-29T06:58:53.742Z,74.72
2022-07-29T07:01:20.855Z,76.48
2022-07-29T07:03:48.284Z,76.00
2022-07-29T07:06:15.193Z,73.30
2022-07-29T07:08:42.011Z,76.76
2022-07-29T07:11:08.486Z,76.32
2022-07-29T07:13:36.699Z,74.15
2022-07-29T07:16:03.725Z,75.13
2022-07-29T07:18:30.405Z,74.50
2022-07-29T07:20:57.764Z,74.76
2022-07-29T07:23:24.322Z,73.32
2022-07-29T07:25:50.745Z,71.90
2022-07-29T07:28:17.247Z,69.16
2022-07-29T07:30:43.686Z,67.65
2022-07-29T07:33:10.233Z,63.72
2022-07-29T07:35:36.772Z,62.31
2022-07-29T07:38:03.330Z,62.28
2022-07-29T07:40:29.832Z,59.52
2022-07-29T07:42:56.278Z,58.90
2022-07-29T07:45:23.009Z,59.33
2022-07-29T07:47:49.430Z,56.86
2022-07-29T07:50:19.223Z,59.54
2022-07-29T07:52:53.953Z,58.28
2022-07-29T07:55:20.890Z,59.77
2022-07-29T07:57:47.976Z,59.33
2022-07-29T08:00:16.273Z,56.34
2022-07-29T08:02:43.864Z,56.49
2022-07-29T08:05:12.496Z,59.76
2022-07-29T08:07:39.366Z,56.92
2022-07-29T08:10:06.368Z,56.97
2022-07-29T08:12:32.901Z,56.12
2022-07-29T08:14:59.475Z,55.00
2022-07-29T08:17:26.208Z,54.37
2022-07-29T08:19:52.613Z,56.11
2022-07-29T08:22:19.124Z,54.95
2022-07-29T08:24:48.060Z,54.84
2022-07-29T08:27:33.827Z,54.83
2022-07-29T08:30:01.565Z,55.97
2022-07-29T08:32:52.126Z,58.55
2022-07-29T08:35:15.847Z,58.64
2022-07-29T08:37:42.901Z,56.48
2022-07-29T08:40:09.763Z,55.05
2022-07-29T08:42:36.513Z,54.61
2022-07-29T08:45:04.467Z,55.88
2022-07-29T08:47:31.233Z,52.88
2022-07-29T08:49:57.680Z,53.00
2022-07-29T08:52:26.829Z,52.96
2022-07-29T08:54:54.125Z,52.76
2022-07-29T08:57:22.894Z,52.35
2022-07-29T08:59:53.348Z,54.03
2022-07-29T09:02:22.630Z,51.16
2022-07-29T09:04:50.337Z,51.56
2022-07-29T09:07:18.503Z,52.39
2022-07-29T09:09:45.199Z,51.79
2022-07-29T09:12:29.592Z,52.14
2022-07-29T09:14:56.938Z,53.70
2022-07-29T09:17:42.615Z,53.83
2022-07-29T09:20:11.562Z,53.43
2022-07-29T09:22:41.902Z,53.37
2022-07-29T09:25:09.474Z,53.68
2022-07-29T09:27:36.545Z,54.09
2022-07-29T09:30:15.125Z,54.09
2022-07-29T09:32:59.194Z,53.47
2022-07-29T09:35:27.078Z,53.60
2022-07-29T09:37:53.837Z,53.91
2022-07-29T09:40:22.597Z,52.30
2022-07-29T09:42:49.925Z,52.89
2022-07-29T09:45:32.579Z,52.08
2022-07-29T09:48:04.230Z,52.05
2022-07-29T09:50:41.187Z,51.80
2022-07-29T09:53:07.733Z,50.83
2022-07-29T09:55:46.496Z,51.66
2022-07-29T09:58:20.082Z,52.22
2022-07-29T10:00:47.752Z,51.38
2022-07-29T10:03:16.588Z,50.54
2022-07-29T10:05:44.263Z,50.96
2022-07-29T10:08:13.183Z,49.92
2022-07-29T10:10:42.593Z,50.21
2022-07-29T10:13:15.695Z,49.11
2022-07-29T10:15:46.087Z,49.19
2022-07-29T10:18:14.424Z,50.25
2022-07-29T10:20:41.880Z,50.56
2022-07-29T10:23:09.507Z,51.69
2022-07-29T10:25:35.898Z,50.66
2022-07-29T10:28:02.311Z,50.29
2022-07-29T10:30:28.798Z,50.12
2022-07-29T10:33:40.101Z,50.01
2022-07-29T10:36:36.908Z,50.99
2022-07-29T10:39:23.259Z,50.21
2022-07-29T10:42:03.676Z,50.22
2022-07-29T10:44:30.936Z,50.00
2022-07-29T10:46:58.527Z,50.02
2022-07-29T10:49:30.403Z,49.94
2022-07-29T10:52:08.915Z,50.34
2022-07-29T10:54:42.358Z,50.62
2022-07-29T10:57:13.710Z,50.23
2022-07-29T10:59:42.962Z,49.40
2022-07-29T11:02:46.829Z,49.23
2022-07-29T11:05:19.584Z,47.81
2022-07-29T11:08:16.204Z,48.43
2022-07-29T11:10:47.955Z,48.90
2022-07-29T11:13:44.063Z,49.02
2022-07-29T11:16:10.735Z,48.95
2022-07-29T11:18:57.804Z,46.52
2022-07-29T11:21:53.931Z,47.24
2022-07-29T11:27:23.174Z,46.47
2022-07-29T11:29:58.448Z,47.15
2022-07-29T11:32:29.542Z,48.08
2022-07-29T11:35:17.292Z,48.63
2022-07-29T11:37:52.290Z,46.01
2022-07-29T11:40:22.914Z,44.24
2022-07-29T11:42:51.906Z,44.56
2022-07-29T11:45:44.362Z,45.04
2022-07-29T11:48:29.715Z,44.27
2022-07-29T11:50:59.578Z,46.07
2022-07-29T11:53:29.210Z,46.42
2022-07-29T11:56:00.656Z,43.45
2022-07-29T11:58:29.270Z,45.40
2022-07-29T12:03:43.612Z,45.58
2022-07-29T12:06:17.978Z,44.78
2022-07-29T12:08:45.328Z,45.02
2022-07-29T12:11:20.528Z,44.63
2022-07-29T12:13:49.331Z,44.10
2022-07-29T12:16:16.731Z,44.01
2022-07-29T12:18:59.396Z,44.39
2022-07-29T12:21:26.647Z,43.51
2022-07-29T12:23:57.735Z,43.93
2022-07-29T12:26:28.580Z,42.79
2022-07-29T12:28:55.553Z,43.19
2022-07-29T12:31:42.901Z,41.50
2022-07-29T12:34:10.373Z,41.50
2022-07-29T12:36:37.253Z,42.57
2022-07-29T12:39:05.478Z,42.53
2022-07-29T12:41:32.548Z,40.99
2022-07-29T12:43:59.076Z,40.90
2022-07-29T12:46:25.504Z,39.99
2022-07-29T12:48:55.680Z,40.92
2022-07-29T12:51:37.457Z,41.21
2022-07-29T12:54:16.705Z,41.92
2022-07-29T12:56:45.534Z,39.75
2022-07-29T12:59:20.126Z,40.14
2022-07-29T13:01:50.042Z,40.80
2022-07-29T13:04:30.880Z,40.08
2022-07-29T13:07:54.073Z,39.88
2022-07-29T13:10:15.824Z,40.82
2022-07-29T13:13:04.281Z,39.98
2022-07-29T13:15:31.190Z,39.53
2022-07-29T13:17:57.631Z,40.58
2022-07-29T13:20:32.056Z,40.80
2022-07-29T13:23:00.850Z,41.13
2022-07-29T13:25:32.919Z,41.20
2022-07-29T13:28:00.463Z,41.71
2022-07-29T13:30:26.993Z,41.49
2022-07-29T13:32:53.844Z,41.86
2022-07-29T13:35:21.260Z,42.51
2022-07-29T13:37:48.024Z,42.55
2022-07-29T13:40:15.013Z,42.53
2022-07-29T13:42:41.939Z,41.86
2022-07-29T13:45:09.499Z,42.25
2022-07-29T13:47:35.916Z,43.10
2022-07-29T13:50:02.624Z,42.88
2022-07-29T13:52:29.682Z,43.62
2022-07-29T13:54:56.576Z,43.73
2022-07-29T13:57:22.993Z,43.58
2022-07-29T13:59:53.931Z,43.17
2022-07-29T14:02:21.327Z,42.59
2022-07-29T14:04:52.127Z,42.53
2022-07-29T14:07:18.611Z,41.02
2022-07-29T14:09:45.111Z,42.46
2022-07-29T14:12:12.238Z,42.76
2022-07-29T14:14:38.918Z,43.81
2022-07-29T14:17:07.388Z,42.56
2022-07-29T14:19:36.650Z,42.13
2022-07-29T14:22:05.235Z,43.00
2022-07-29T14:24:32.174Z,44.04
2022-07-29T14:26:59.991Z,42.40
2022-07-29T14:29:37.550Z,43.13
2022-07-29T14:32:08.541Z,43.54
2022-07-29T14:34:36.458Z,43.67
2022-07-29T14:37:06.031Z,45.08
2022-07-29T14:39:32.933Z,43.42
2022-07-29T14:42:00.345Z,42.84
2022-07-29T14:44:31.947Z,44.63
2022-07-29T14:47:00.478Z,43.13
2022-07-29T14:49:27.928Z,41.64
2022-07-29T14:51:54.486Z,42.25
2022-07-29T14:54:20.899Z,42.09
2022-07-29T14:56:47.699Z,42.53
2022-07-29T14:59:14.513Z,42.32
2022-07-29T15:01:41.023Z,42.49
2022-07-29T15:04:07.549Z,42.72
2022-07-29T15:06:34.925Z,43.27
2022-07-29T15:09:01.413Z,42.38
2022-07-29T15:11:27.832Z,41.95
2022-07-29T15:13:54.342Z,40.11
2022-07-29T15:16:21.676Z,38.77
2022-07-29T15:18:48.114Z,39.22
2022-07-29T15:21:14.728Z,40.94
2022-07-29T15:23:41.183Z,41.46
2022-07-29T15:26:07.739Z,40.56
2022-07-29T15:28:34.198Z,41.78
2022-07-29T15:31:00.619Z,42.12
2022-07-29T15:33:27.567Z,43.22
2022-07-29T15:35:54.116Z,42.62
2022-07-29T15:38:20.615Z,43.23
2022-07-29T15:40:55.702Z,43.68
2022-07-29T15:43:22.862Z,46.12
2022-07-29T15:46:08.566Z,49.12
2022-07-29T15:48:39.246Z,49.58
2022-07-29T15:51:05.742Z,49.18
2022-07-29T15:53:32.142Z,49.73
2022-07-29T15:55:59.559Z,49.76
2022-07-29T15:58:26.004Z,48.99
2022-07-29T16:00:52.428Z,48.85
2022-07-29T16:03:19.547Z,48.44
2022-07-29T16:05:46.121Z,48.31
2022-07-29T16:08:12.589Z,48.00
2022-07-29T16:10:39.085Z,47.49
2022-07-29T16:13:05.593Z,47.29
2022-07-29T16:15:32.225Z,47.57
2022-07-29T16:17:58.694Z,48.27
2022-07-29T16:20:25.363Z,48.77
2022-07-29T16:22:51.800Z,48.41
2022-07-29T16:25:18.314Z,49.39
2022-07-29T16:27:44.745Z,49.35
2022-07-29T16:30:11.549Z,49.59
2022-07-29T16:32:38.197Z,48.98
2022-07-29T16:35:05.339Z,50.07
2022-07-29T16:37:33.667Z,53.06
2022-07-29T16:40:00.225Z,57.38
2022-07-29T16:42:45.369Z,61.11
2022-07-29T16:45:12.882Z,61.73
2022-07-29T16:47:39.339Z,60.28
2022-07-29T16:50:06.255Z,62.39
2022-07-29T16:52:32.728Z,66.95
2022-07-29T16:54:59.226Z,79.28
2022-07-29T16:57:25.709Z,80.96
2022-07-29T16:59:52.308Z,81.76
2022-07-29T17:02:18.916Z,82.58
2022-07-29T17:04:45.418Z,81.99
2022-07-29T17:07:11.858Z,87.10
2022-07-29T17:09:38.347Z,89.36
2022-07-29T17:12:05.169Z,89.12
2022-07-29T17:14:31.679Z,89.94
2022-07-29T17:17:02.184Z,88.78
2022-07-29T17:19:30.705Z,85.67
2022-07-29T17:22:06.458Z,84.37
2022-07-29T17:24:36.874Z,83.67
2022-07-29T17:27:04.798Z,83.59
2022-07-29T17:29:31.468Z,82.88
2022-07-29T17:31:59.432Z,83.10
2022-07-29T17:34:25.966Z,85.30
2022-07-29T17:36:52.454Z,85.46
2022-07-29T17:39:19.024Z,85.88
2022-07-29T17:41:46.766Z,86.50
2022-07-29T17:44:13.486Z,86.04
2022-07-29T17:46:40.516Z,84.24
2022-07-29T17:49:07.326Z,80.66
2022-07-29T17:51:33.924Z,78.15
2022-07-29T17:54:00.369Z,77.20
2022-07-29T17:56:26.886Z,75.21
2022-07-29T17:58:53.408Z,76.94
2022-07-29T18:01:19.964Z,79.35
2022-07-29T18:03:46.979Z,79.97
2022-07-29T18:06:13.510Z,80.86
2022-07-29T18:08:40.106Z,81.14
2022-07-29T18:11:06.825Z,80.58
2022-07-29T18:13:33.394Z,81.27
2022-07-29T18:16:00.620Z,82.89
2022-07-29T18:18:27.612Z,84.36
2022-07-29T18:20:54.188Z,84.16
2022-07-29T18:23:21.172Z,84.86
2022-07-29T18:25:47.650Z,85.98
2022-07-29T18:28:14.104Z,86.39
2022-07-29T18:30:40.570Z,86.08
2022-07-29T18:33:21.763Z,86.31
2022-07-29T18:35:50.376Z,89.22
2022-07-29T18:38:17.036Z,90.88
2022-07-29T18:40:45.421Z,91.35
2022-07-29T18:43:12.903Z,91.90
2022-07-29T18:45:39.647Z,91.61
2022-07-29T18:48:08.402Z,90.71
2022-07-29T18:50:39.686Z,88.98
2022-07-29T18:53:06.109Z,87.85
2022-07-29T18:55:32.705Z,87.16
2022-07-29T18:57:59.353Z,85.72
2022-07-29T19:00:26.331Z,86.18
2022-07-29T19:02:53.199Z,86.08
2022-07-29T19:05:19.989Z,86.11
2022-07-29T19:07:46.433Z,85.71
2022-07-29T19:10:13.478Z,85.82
2022-07-29T19:12:39.978Z,86.66
2022-07-29T19:15:07.751Z,89.90
2022-07-29T19:17:34.184Z,89.30
2022-07-29T19:20:00.625Z,84.25
2022-07-29T19:22:27.027Z,81.51
2022-07-29T19:24:53.510Z,84.08
2022-07-29T19:27:19.976Z,84.39
2022-07-29T19:29:46.385Z,82.98
2022-07-29T19:32:13.639Z,84.15
2022-07-29T19:35:10.204Z,84.87
2022-07-29T19:37:37.312Z,84.71
2022-07-29T19:40:04.969Z,84.27
2022-07-29T19:42:31.363Z,78.88
2022-07-29T19:44:57.813Z,77.77
2022-07-29T19:47:24.251Z,78.10
2022-07-29T19:49:50.639Z,77.35
2022-07-29T19:52:17.130Z,76.14
2022-07-29T19:54:43.564Z,75.19
2022-07-29T19:57:10.080Z,75.74
2022-07-29T19:59:36.533Z,74.61
2022-07-29T20:02:03.216Z,75.34
2022-07-29T20:04:29.773Z,74.61
2022-07-29T20:07:01.204Z,76.67
2022-07-29T20:09:28.416Z,74.67
2022-07-29T20:11:55.041Z,76.45
2022-07-29T20:14:21.830Z,78.96
2022-07-29T20:16:48.825Z,79.60
2022-07-29T20:19:15.301Z,80.44
2022-07-29T20:21:41.870Z,81.60
2022-07-29T20:24:10.264Z,81.24
2022-07-29T20:26:36.719Z,80.59
2022-07-29T20:29:05.129Z,81.54
2022-07-29T20:31:32.378Z,82.53
2022-07-29T20:33:59.985Z,82.37
2022-07-29T20:36:26.872Z,83.81
2022-07-29T20:38:53.478Z,83.17
2022-07-29T20:41:19.891Z,82.94
2022-07-29T20:43:49.632Z,83.93
2022-07-29T20:46:16.125Z,86.06
2022-07-29T20:48:42.839Z,85.06
2022-07-29T20:51:09.388Z,85.75
2022-07-29T20:53:38.183Z,85.13
2022-07-29T20:56:04.981Z,85.56
2022-07-29T20:58:32.634Z,85.83
2022-07-29T21:00:59.077Z,85.72
2022-07-29T21:03:26.621Z,85.32
2022-07-29T21:05:53.173Z,86.90
2022-07-29T21:08:19.605Z,87.06
2022-07-29T21:10:46.012Z,86.51
2022-07-29T21:13:13.984Z,87.02
2022-07-29T21:15:42.286Z,86.96
2022-07-29T21:18:26.546Z,86.85
2022-07-29T21:21:00.752Z,85.76
2022-07-29T21:23:27.700Z,86.00
2022-07-29T21:25:54.494Z,85.60
2022-07-29T21:28:26.638Z,84.57
2022-07-29T21:31:05.433Z,83.93
2022-07-29T21:33:33.410Z,84.42
2022-07-29T21:38:48.278Z,82.45
2022-07-29T21:41:15.377Z,80.89
2022-07-29T21:43:42.438Z,82.88
2022-07-29T21:46:09.320Z,82.13
2022-07-29T21:48:36.120Z,83.02
2022-07-29T21:51:02.619Z,84.41
2022-07-29T21:53:29.084Z,83.55
2022-07-29T21:55:57.619Z,82.87
2022-07-29T21:58:24.559Z,83.50
2022-07-29T22:00:51.497Z,83.02
2022-07-29T22:03:18.013Z,84.56
2022-07-29T22:05:44.624Z,84.18
2022-07-29T22:08:11.161Z,83.72
2022-07-29T22:10:37.799Z,83.34
2022-07-29T22:13:04.288Z,83.30
2022-07-29T22:15:31.319Z,80.79
2022-07-29T22:17:58.411Z,79.26
2022-07-29T22:20:25.577Z,81.62
2022-07-29T22:22:52.254Z,80.06
2022-07-29T22:25:19.087Z,81.75
2022-07-29T22:27:45.840Z,82.88
2022-07-29T22:30:12.833Z,81.65
2022-07-29T22:32:39.715Z,83.76
2022-07-29T22:35:06.951Z,83.05
2022-07-29T22:37:33.587Z,81.01
2022-07-29T22:40:00.034Z,81.92
2022-07-29T22:42:26.515Z,79.69
2022-07-29T22:44:53.234Z,80.23
2022-07-29T22:47:45.683Z,79.73
2022-07-29T22:50:06.455Z,81.22
2022-07-29T22:52:32.840Z,81.68
2022-07-29T22:54:59.307Z,82.11
2022-07-29T22:57:25.931Z,80.23
2022-07-29T22:59:52.314Z,78.04
2022-07-29T23:02:19.075Z,80.20
2022-07-29T23:04:45.499Z,81.73
2022-07-29T23:07:11.957Z,82.15
2022-07-29T23:09:38.457Z,82.18
2022-07-29T23:12:05.112Z,82.56
2022-07-29T23:14:31.519Z,82.84
2022-07-29T23:16:58.726Z,83.25
2022-07-29T23:19:25.340Z,84.88
2022-07-29T23:21:51.807Z,84.94
2022-07-29T23:24:18.435Z,86.18
2022-07-29T23:26:44.959Z,85.92
2022-07-29T23:29:11.531Z,84.97
2022-07-29T23:31:41.745Z,84.16
2022-07-29T23:34:09.099Z,85.99
2022-07-29T23:36:35.554Z,86.16
2022-07-29T23:39:01.985Z,87.45
2022-07-29T23:41:31.808Z,88.35
2022-07-29T23:43:58.373Z,88.11
2022-07-29T23:46:24.925Z,87.87
2022-07-29T23:48:51.485Z,87.97
2022-07-29T23:51:18.070Z,85.91
2022-07-29T23:53:53.846Z,83.20
2022-07-29T23:56:20.829Z,84.43
2022-07-29T23:58:47.264Z,85.23
